sensor_id;sensor_type;location;lat;lon;timestamp;P1;durP1;ratioP1;P2;durP2;ratioP2
2462;SDS011;1243;54.298;10.172;2023-08-06T00:02:21;3.53;;;3.23;;
2462;SDS011;1243;54.298;10.172;2023-08-06T00:04:46;2.60;;;2.40;;
2462;SDS011;1243;54.298;10.172;2023-08-06T00:07:12;3.03;;;2.77;;
2462;SDS011;1243;54.298;10.172;2023-08-06T00:09:38;2.97;;;2.70;;
2462;SDS011;1243;54.298;10.172;2023-08-06T00:12:04;5.40;;;3.10;;
2462;SDS011;1243;54.298;10.172;2023-08-06T00:14:30;3.60;;;3.10;;
2462;SDS011;1243;54.298;10.172;2023-08-06T00:16:55;4.47;;;3.17;;
2462;SDS011;1243;54.298;10.172;2023-08-06T00:19:21;9.70;;;3.33;;
2462;SDS011;1243;54.298;10.172;2023-08-06T00:21:47;3.87;;;3.13;;
2462;SDS011;1243;54.298;10.172;2023-08-06T00:24:13;3.83;;;2.97;;
2462;SDS011;1243;54.298;10.172;2023-08-06T00:26:38;7.23;;;3.50;;
2462;SDS011;1243;54.298;10.172;2023-08-06T00:29:04;3.37;;;3.07;;
2462;SDS011;1243;54.298;10.172;2023-08-06T00:31:30;5.27;;;3.00;;
2462;SDS011;1243;54.298;10.172;2023-08-06T00:33:55;4.90;;;3.50;;
2462;SDS011;1243;54.298;10.172;2023-08-06T00:36:21;5.00;;;3.10;;
2462;SDS011;1243;54.298;10.172;2023-08-06T00:38:47;5.20;;;3.10;;
2462;SDS011;1243;54.298;10.172;2023-08-06T00:41:12;3.67;;;3.33;;
2462;SDS011;1243;54.298;10.172;2023-08-06T00:43:38;6.20;;;3.60;;
2462;SDS011;1243;54.298;10.172;2023-08-06T00:46:04;5.83;;;3.70;;
2462;SDS011;1243;54.298;10.172;2023-08-06T00:48:30;4.23;;;2.70;;
2462;SDS011;1243;54.298;10.172;2023-08-06T00:50:56;8.47;;;4.10;;
2462;SDS011;1243;54.298;10.172;2023-08-06T00:53:22;3.67;;;3.37;;
2462;SDS011;1243;54.298;10.172;2023-08-06T00:55:48;6.03;;;3.67;;
2462;SDS011;1243;54.298;10.172;2023-08-06T00:58:14;8.13;;;3.60;;
2462;SDS011;1243;54.298;10.172;2023-08-06T01:00:41;3.43;;;3.13;;
2462;SDS011;1243;54.298;10.172;2023-08-06T01:03:07;5.00;;;3.60;;
2462;SDS011;1243;54.298;10.172;2023-08-06T01:05:32;6.03;;;3.53;;
2462;SDS011;1243;54.298;10.172;2023-08-06T01:11:31;3.13;;;2.90;;
2462;SDS011;1243;54.298;10.172;2023-08-06T01:14:15;4.93;;;3.70;;
2462;SDS011;1243;54.298;10.172;2023-08-06T01:16:50;9.50;;;3.20;;
2462;SDS011;1243;54.298;10.172;2023-08-06T01:19:20;3.73;;;3.20;;
2462;SDS011;1243;54.298;10.172;2023-08-06T01:21:46;4.83;;;3.00;;
2462;SDS011;1243;54.298;10.172;2023-08-06T01:24:12;5.50;;;4.17;;
2462;SDS011;1243;54.298;10.172;2023-08-06T01:27:14;5.20;;;3.10;;
2462;SDS011;1243;54.298;10.172;2023-08-06T01:30:02;5.33;;;3.43;;
2462;SDS011;1243;54.298;10.172;2023-08-06T01:32:33;4.03;;;2.97;;
2462;SDS011;1243;54.298;10.172;2023-08-06T01:35:00;3.53;;;3.13;;
2462;SDS011;1243;54.298;10.172;2023-08-06T01:37:28;5.93;;;3.87;;
2462;SDS011;1243;54.298;10.172;2023-08-06T01:39:54;4.00;;;2.90;;
2462;SDS011;1243;54.298;10.172;2023-08-06T01:42:20;9.47;;;4.70;;
2462;SDS011;1243;54.298;10.172;2023-08-06T01:44:45;5.30;;;3.20;;
2462;SDS011;1243;54.298;10.172;2023-08-06T01:47:11;5.90;;;3.97;;
2462;SDS011;1243;54.298;10.172;2023-08-06T01:49:37;5.43;;;3.40;;
2462;SDS011;1243;54.298;10.172;2023-08-06T01:52:03;8.43;;;5.63;;
2462;SDS011;1243;54.298;10.172;2023-08-06T01:54:29;4.00;;;3.70;;
2462;SDS011;1243;54.298;10.172;2023-08-06T01:56:54;8.67;;;4.10;;
2462;SDS011;1243;54.298;10.172;2023-08-06T01:59:20;7.37;;;3.63;;
2462;SDS011;1243;54.298;10.172;2023-08-06T02:01:46;4.80;;;4.10;;
2462;SDS011;1243;54.298;10.172;2023-08-06T02:04:11;7.27;;;3.70;;
2462;SDS011;1243;54.298;10.172;2023-08-06T02:06:37;8.73;;;4.27;;
2462;SDS011;1243;54.298;10.172;2023-08-06T02:09:03;9.20;;;4.43;;
2462;SDS011;1243;54.298;10.172;2023-08-06T02:11:29;4.10;;;3.70;;
2462;SDS011;1243;54.298;10.172;2023-08-06T02:13:54;5.27;;;3.93;;
2462;SDS011;1243;54.298;10.172;2023-08-06T02:16:20;4.60;;;4.00;;
2462;SDS011;1243;54.298;10.172;2023-08-06T02:18:45;4.57;;;3.90;;
2462;SDS011;1243;54.298;10.172;2023-08-06T02:21:11;4.60;;;4.20;;
2462;SDS011;1243;54.298;10.172;2023-08-06T02:23:37;7.67;;;4.50;;
2462;SDS011;1243;54.298;10.172;2023-08-06T02:26:03;8.00;;;4.80;;
2462;SDS011;1243;54.298;10.172;2023-08-06T02:28:30;7.40;;;4.33;;
2462;SDS011;1243;54.298;10.172;2023-08-06T02:30:56;6.50;;;3.73;;
2462;SDS011;1243;54.298;10.172;2023-08-06T02:33:22;4.60;;;4.20;;
2462;SDS011;1243;54.298;10.172;2023-08-06T02:35:47;4.87;;;4.47;;
2462;SDS011;1243;54.298;10.172;2023-08-06T02:38:13;4.60;;;4.20;;
2462;SDS011;1243;54.298;10.172;2023-08-06T02:40:43;7.00;;;4.70;;
2462;SDS011;1243;54.298;10.172;2023-08-06T02:43:12;5.70;;;5.07;;
2462;SDS011;1243;54.298;10.172;2023-08-06T02:45:38;5.40;;;4.27;;
2462;SDS011;1243;54.298;10.172;2023-08-06T02:48:04;5.80;;;4.50;;
2462;SDS011;1243;54.298;10.172;2023-08-06T02:50:30;5.90;;;3.93;;
2462;SDS011;1243;54.298;10.172;2023-08-06T02:52:55;4.80;;;4.30;;
2462;SDS011;1243;54.298;10.172;2023-08-06T02:55:21;4.40;;;4.00;;
2462;SDS011;1243;54.298;10.172;2023-08-06T02:57:47;6.77;;;4.00;;
2462;SDS011;1243;54.298;10.172;2023-08-06T03:00:12;6.93;;;3.90;;
2462;SDS011;1243;54.298;10.172;2023-08-06T03:02:38;4.87;;;4.47;;
2462;SDS011;1243;54.298;10.172;2023-08-06T03:05:04;6.70;;;3.87;;
2462;SDS011;1243;54.298;10.172;2023-08-06T03:07:31;6.13;;;4.53;;
2462;SDS011;1243;54.298;10.172;2023-08-06T03:09:58;14.13;;;4.13;;
2462;SDS011;1243;54.298;10.172;2023-08-06T03:12:26;6.70;;;4.00;;
2462;SDS011;1243;54.298;10.172;2023-08-06T03:14:52;7.10;;;3.93;;
2462;SDS011;1243;54.298;10.172;2023-08-06T03:17:18;5.10;;;4.17;;
2462;SDS011;1243;54.298;10.172;2023-08-06T03:19:44;7.07;;;4.63;;
2462;SDS011;1243;54.298;10.172;2023-08-06T03:22:09;6.43;;;4.40;;
2462;SDS011;1243;54.298;10.172;2023-08-06T03:24:35;6.33;;;4.20;;
2462;SDS011;1243;54.298;10.172;2023-08-06T03:27:01;4.43;;;3.90;;
2462;SDS011;1243;54.298;10.172;2023-08-06T03:29:26;5.77;;;4.33;;
2462;SDS011;1243;54.298;10.172;2023-08-06T03:31:52;4.10;;;3.80;;
2462;SDS011;1243;54.298;10.172;2023-08-06T03:34:18;7.27;;;4.30;;
2462;SDS011;1243;54.298;10.172;2023-08-06T03:36:44;5.83;;;4.40;;
2462;SDS011;1243;54.298;10.172;2023-08-06T03:39:09;4.50;;;4.10;;
2462;SDS011;1243;54.298;10.172;2023-08-06T03:41:35;5.47;;;4.90;;
2462;SDS011;1243;54.298;10.172;2023-08-06T03:44:01;6.07;;;4.70;;
2462;SDS011;1243;54.298;10.172;2023-08-06T03:46:28;5.33;;;4.80;;
2462;SDS011;1243;54.298;10.172;2023-08-06T03:48:54;5.17;;;4.77;;
2462;SDS011;1243;54.298;10.172;2023-08-06T03:51:22;6.50;;;5.17;;
2462;SDS011;1243;54.298;10.172;2023-08-06T03:53:47;6.17;;;5.50;;
2462;SDS011;1243;54.298;10.172;2023-08-06T03:56:13;5.70;;;5.17;;
2462;SDS011;1243;54.298;10.172;2023-08-06T03:58:39;11.20;;;4.67;;
2462;SDS011;1243;54.298;10.172;2023-08-06T04:01:04;12.73;;;5.67;;
2462;SDS011;1243;54.298;10.172;2023-08-06T04:03:30;7.83;;;5.00;;
2462;SDS011;1243;54.298;10.172;2023-08-06T04:05:55;6.60;;;5.20;;
2462;SDS011;1243;54.298;10.172;2023-08-06T04:08:21;5.20;;;4.60;;
2462;SDS011;1243;54.298;10.172;2023-08-06T04:10:53;6.90;;;4.87;;
2462;SDS011;1243;54.298;10.172;2023-08-06T04:13:19;5.97;;;5.40;;
2462;SDS011;1243;54.298;10.172;2023-08-06T04:15:45;5.30;;;4.40;;
2462;SDS011;1243;54.298;10.172;2023-08-06T04:18:12;12.00;;;4.83;;
2462;SDS011;1243;54.298;10.172;2023-08-06T04:20:47;9.33;;;4.70;;
2462;SDS011;1243;54.298;10.172;2023-08-06T04:23:14;9.07;;;5.40;;
2462;SDS011;1243;54.298;10.172;2023-08-06T04:25:40;4.80;;;4.30;;
2462;SDS011;1243;54.298;10.172;2023-08-06T04:28:06;6.47;;;4.50;;
2462;SDS011;1243;54.298;10.172;2023-08-06T04:30:32;7.60;;;4.70;;
2462;SDS011;1243;54.298;10.172;2023-08-06T04:32:58;8.20;;;4.97;;
2462;SDS011;1243;54.298;10.172;2023-08-06T04:35:24;5.33;;;4.60;;
2462;SDS011;1243;54.298;10.172;2023-08-06T04:37:49;6.10;;;4.63;;
2462;SDS011;1243;54.298;10.172;2023-08-06T04:40:15;4.53;;;3.70;;
2462;SDS011;1243;54.298;10.172;2023-08-06T04:42:41;5.23;;;4.40;;
2462;SDS011;1243;54.298;10.172;2023-08-06T04:45:06;6.07;;;4.40;;
2462;SDS011;1243;54.298;10.172;2023-08-06T04:47:32;4.47;;;4.17;;
2462;SDS011;1243;54.298;10.172;2023-08-06T04:49:58;9.23;;;4.93;;
2462;SDS011;1243;54.298;10.172;2023-08-06T04:52:24;5.97;;;4.90;;
2462;SDS011;1243;54.298;10.172;2023-08-06T04:54:53;5.80;;;4.90;;
2462;SDS011;1243;54.298;10.172;2023-08-06T04:57:19;8.03;;;4.80;;
2462;SDS011;1243;54.298;10.172;2023-08-06T04:59:45;9.80;;;3.67;;
2462;SDS011;1243;54.298;10.172;2023-08-06T05:02:11;6.77;;;5.30;;
2462;SDS011;1243;54.298;10.172;2023-08-06T05:04:36;7.97;;;4.57;;
2462;SDS011;1243;54.298;10.172;2023-08-06T05:07:02;4.23;;;3.87;;
2462;SDS011;1243;54.298;10.172;2023-08-06T05:09:28;10.80;;;5.30;;
2462;SDS011;1243;54.298;10.172;2023-08-06T05:11:54;6.87;;;4.30;;
2462;SDS011;1243;54.298;10.172;2023-08-06T05:14:20;5.00;;;4.20;;
2462;SDS011;1243;54.298;10.172;2023-08-06T05:16:45;4.20;;;3.70;;
2462;SDS011;1243;54.298;10.172;2023-08-06T05:19:11;9.60;;;4.20;;
2462;SDS011;1243;54.298;10.172;2023-08-06T05:21:37;7.73;;;4.03;;
2462;SDS011;1243;54.298;10.172;2023-08-06T05:24:02;5.63;;;4.17;;
2462;SDS011;1243;54.298;10.172;2023-08-06T05:26:28;6.80;;;4.00;;
2462;SDS011;1243;54.298;10.172;2023-08-06T05:28:54;4.43;;;4.03;;
2462;SDS011;1243;54.298;10.172;2023-08-06T05:31:20;6.23;;;4.33;;
2462;SDS011;1243;54.298;10.172;2023-08-06T05:33:45;6.97;;;4.03;;
2462;SDS011;1243;54.298;10.172;2023-08-06T05:36:11;5.30;;;4.30;;
2462;SDS011;1243;54.298;10.172;2023-08-06T05:38:37;5.53;;;4.20;;
2462;SDS011;1243;54.298;10.172;2023-08-06T05:41:02;9.70;;;4.10;;
2462;SDS011;1243;54.298;10.172;2023-08-06T05:43:28;4.83;;;4.33;;
2462;SDS011;1243;54.298;10.172;2023-08-06T05:45:55;3.57;;;3.27;;
2462;SDS011;1243;54.298;10.172;2023-08-06T05:48:21;4.93;;;3.83;;
2462;SDS011;1243;54.298;10.172;2023-08-06T05:50:49;13.73;;;3.93;;
2462;SDS011;1243;54.298;10.172;2023-08-06T05:53:15;5.50;;;4.20;;
2462;SDS011;1243;54.298;10.172;2023-08-06T05:55:41;7.73;;;3.70;;
2462;SDS011;1243;54.298;10.172;2023-08-06T05:58:07;4.20;;;3.37;;
2462;SDS011;1243;54.298;10.172;2023-08-06T06:00:32;5.90;;;3.53;;
2462;SDS011;1243;54.298;10.172;2023-08-06T06:02:58;6.17;;;3.73;;
2462;SDS011;1243;54.298;10.172;2023-08-06T06:05:24;7.00;;;3.43;;
2462;SDS011;1243;54.298;10.172;2023-08-06T06:07:49;4.57;;;3.33;;
2462;SDS011;1243;54.298;10.172;2023-08-06T06:10:15;13.63;;;3.97;;
2462;SDS011;1243;54.298;10.172;2023-08-06T06:12:41;7.37;;;3.77;;
2462;SDS011;1243;54.298;10.172;2023-08-06T06:15:06;4.57;;;3.50;;
2462;SDS011;1243;54.298;10.172;2023-08-06T06:17:32;6.00;;;3.60;;
2462;SDS011;1243;54.298;10.172;2023-08-06T06:19:58;6.80;;;3.50;;
2462;SDS011;1243;54.298;10.172;2023-08-06T06:22:24;3.97;;;3.43;;
2462;SDS011;1243;54.298;10.172;2023-08-06T06:24:49;9.93;;;3.73;;
2462;SDS011;1243;54.298;10.172;2023-08-06T06:27:15;4.83;;;3.53;;
2462;SDS011;1243;54.298;10.172;2023-08-06T06:29:41;4.70;;;3.17;;
2462;SDS011;1243;54.298;10.172;2023-08-06T06:32:06;3.97;;;3.67;;
2462;SDS011;1243;54.298;10.172;2023-08-06T06:34:32;3.23;;;2.57;;
2462;SDS011;1243;54.298;10.172;2023-08-06T06:36:58;5.53;;;3.87;;
2462;SDS011;1243;54.298;10.172;2023-08-06T06:39:24;6.50;;;3.40;;
2462;SDS011;1243;54.298;10.172;2023-08-06T06:41:49;4.30;;;3.73;;
2462;SDS011;1243;54.298;10.172;2023-08-06T06:44:15;8.13;;;3.43;;
2462;SDS011;1243;54.298;10.172;2023-08-06T06:46:41;4.10;;;2.60;;
2462;SDS011;1243;54.298;10.172;2023-08-06T06:49:06;3.30;;;3.00;;
2462;SDS011;1243;54.298;10.172;2023-08-06T06:51:32;7.53;;;3.50;;
2462;SDS011;1243;54.298;10.172;2023-08-06T06:53:58;9.57;;;4.90;;
2462;SDS011;1243;54.298;10.172;2023-08-06T06:56:23;7.20;;;3.90;;
2462;SDS011;1243;54.298;10.172;2023-08-06T06:58:49;6.90;;;3.63;;
2462;SDS011;1243;54.298;10.172;2023-08-06T07:01:15;3.50;;;3.20;;
2462;SDS011;1243;54.298;10.172;2023-08-06T07:03:41;10.30;;;2.57;;
2462;SDS011;1243;54.298;10.172;2023-08-06T07:06:06;6.43;;;3.00;;
2462;SDS011;1243;54.298;10.172;2023-08-06T07:08:32;4.70;;;3.40;;
2462;SDS011;1243;54.298;10.172;2023-08-06T07:11:01;9.33;;;2.63;;
2462;SDS011;1243;54.298;10.172;2023-08-06T07:13:28;4.93;;;3.53;;
2462;SDS011;1243;54.298;10.172;2023-08-06T07:15:54;2.70;;;2.50;;
2462;SDS011;1243;54.298;10.172;2023-08-06T07:18:20;3.30;;;2.83;;
2462;SDS011;1243;54.298;10.172;2023-08-06T07:20:50;3.67;;;2.20;;
2462;SDS011;1243;54.298;10.172;2023-08-06T07:23:17;5.63;;;3.27;;
2462;SDS011;1243;54.298;10.172;2023-08-06T07:25:43;4.10;;;3.37;;
2462;SDS011;1243;54.298;10.172;2023-08-06T07:28:09;3.33;;;2.87;;
2462;SDS011;1243;54.298;10.172;2023-08-06T07:30:38;3.33;;;2.80;;
2462;SDS011;1243;54.298;10.172;2023-08-06T07:33:04;3.27;;;2.70;;
2462;SDS011;1243;54.298;10.172;2023-08-06T07:35:30;5.60;;;2.60;;
2462;SDS011;1243;54.298;10.172;2023-08-06T07:37:56;5.53;;;3.30;;
2462;SDS011;1243;54.298;10.172;2023-08-06T07:40:21;5.10;;;2.60;;
2462;SDS011;1243;54.298;10.172;2023-08-06T07:42:47;4.00;;;2.60;;
2462;SDS011;1243;54.298;10.172;2023-08-06T07:45:13;2.70;;;2.50;;
2462;SDS011;1243;54.298;10.172;2023-08-06T07:47:39;3.80;;;2.80;;
2462;SDS011;1243;54.298;10.172;2023-08-06T07:50:05;2.90;;;2.53;;
2462;SDS011;1243;54.298;10.172;2023-08-06T07:52:31;5.60;;;3.20;;
2462;SDS011;1243;54.298;10.172;2023-08-06T07:54:57;4.53;;;2.70;;
2462;SDS011;1243;54.298;10.172;2023-08-06T07:57:23;5.90;;;3.10;;
2462;SDS011;1243;54.298;10.172;2023-08-06T07:59:49;7.60;;;2.30;;
2462;SDS011;1243;54.298;10.172;2023-08-06T08:02:15;4.93;;;2.97;;
2462;SDS011;1243;54.298;10.172;2023-08-06T08:04:41;3.23;;;2.83;;
2462;SDS011;1243;54.298;10.172;2023-08-06T08:07:07;2.83;;;2.63;;
2462;SDS011;1243;54.298;10.172;2023-08-06T08:09:34;2.53;;;2.33;;
2462;SDS011;1243;54.298;10.172;2023-08-06T08:12:00;3.63;;;2.40;;
2462;SDS011;1243;54.298;10.172;2023-08-06T08:14:27;5.43;;;2.60;;
2462;SDS011;1243;54.298;10.172;2023-08-06T08:16:54;4.40;;;2.00;;
2462;SDS011;1243;54.298;10.172;2023-08-06T08:19:20;7.60;;;2.27;;
2462;SDS011;1243;54.298;10.172;2023-08-06T08:21:46;3.70;;;2.43;;
2462;SDS011;1243;54.298;10.172;2023-08-06T08:24:12;3.67;;;2.37;;
2462;SDS011;1243;54.298;10.172;2023-08-06T08:26:37;3.40;;;2.60;;
2462;SDS011;1243;54.298;10.172;2023-08-06T08:29:03;7.77;;;2.50;;
2462;SDS011;1243;54.298;10.172;2023-08-06T08:31:29;3.27;;;2.27;;
2462;SDS011;1243;54.298;10.172;2023-08-06T08:33:55;2.47;;;2.30;;
2462;SDS011;1243;54.298;10.172;2023-08-06T08:36:20;5.53;;;2.40;;
2462;SDS011;1243;54.298;10.172;2023-08-06T08:38:46;2.13;;;1.93;;
2462;SDS011;1243;54.298;10.172;2023-08-06T08:41:12;1.90;;;1.80;;
2462;SDS011;1243;54.298;10.172;2023-08-06T08:43:38;2.73;;;2.30;;
2462;SDS011;1243;54.298;10.172;2023-08-06T08:46:05;3.30;;;2.07;;
2462;SDS011;1243;54.298;10.172;2023-08-06T08:48:33;2.50;;;2.30;;
2462;SDS011;1243;54.298;10.172;2023-08-06T08:50:59;3.17;;;2.93;;
2462;SDS011;1243;54.298;10.172;2023-08-06T08:53:25;4.00;;;2.17;;
2462;SDS011;1243;54.298;10.172;2023-08-06T08:55:52;3.73;;;2.30;;
2462;SDS011;1243;54.298;10.172;2023-08-06T08:58:19;2.80;;;2.17;;
2462;SDS011;1243;54.298;10.172;2023-08-06T09:00:45;3.93;;;2.43;;
2462;SDS011;1243;54.298;10.172;2023-08-06T09:03:13;3.77;;;2.10;;
2462;SDS011;1243;54.298;10.172;2023-08-06T09:05:42;2.20;;;2.00;;
2462;SDS011;1243;54.298;10.172;2023-08-06T09:08:11;4.57;;;2.23;;
2462;SDS011;1243;54.298;10.172;2023-08-06T09:10:39;4.67;;;2.10;;
2462;SDS011;1243;54.298;10.172;2023-08-06T09:13:06;4.70;;;2.20;;
2462;SDS011;1243;54.298;10.172;2023-08-06T09:15:32;5.43;;;2.30;;
2462;SDS011;1243;54.298;10.172;2023-08-06T09:17:58;13.13;;;2.90;;
2462;SDS011;1243;54.298;10.172;2023-08-06T09:20:24;10.07;;;2.43;;
2462;SDS011;1243;54.298;10.172;2023-08-06T09:22:52;3.20;;;2.17;;
2462;SDS011;1243;54.298;10.172;2023-08-06T09:25:22;3.97;;;1.90;;
2462;SDS011;1243;54.298;10.172;2023-08-06T09:27:51;3.57;;;2.93;;
2462;SDS011;1243;54.298;10.172;2023-08-06T09:30:30;2.37;;;2.17;;
2462;SDS011;1243;54.298;10.172;2023-08-06T09:33:00;3.00;;;1.70;;
2462;SDS011;1243;54.298;10.172;2023-08-06T09:35:30;3.70;;;1.97;;
2462;SDS011;1243;54.298;10.172;2023-08-06T09:38:09;2.50;;;1.90;;
2462;SDS011;1243;54.298;10.172;2023-08-06T09:40:35;2.40;;;1.53;;
2462;SDS011;1243;54.298;10.172;2023-08-06T09:43:02;3.70;;;2.17;;
2462;SDS011;1243;54.298;10.172;2023-08-06T09:45:30;2.73;;;2.53;;
2462;SDS011;1243;54.298;10.172;2023-08-06T09:48:00;3.33;;;2.20;;
2462;SDS011;1243;54.298;10.172;2023-08-06T09:50:32;2.40;;;2.03;;
2462;SDS011;1243;54.298;10.172;2023-08-06T09:53:01;3.17;;;2.60;;
2462;SDS011;1243;54.298;10.172;2023-08-06T09:55:28;2.30;;;2.10;;
2462;SDS011;1243;54.298;10.172;2023-08-06T09:57:54;2.33;;;2.13;;
2462;SDS011;1243;54.298;10.172;2023-08-06T10:00:20;2.50;;;2.30;;
2462;SDS011;1243;54.298;10.172;2023-08-06T10:02:48;2.20;;;1.83;;
2462;SDS011;1243;54.298;10.172;2023-08-06T10:05:16;4.43;;;2.17;;
2462;SDS011;1243;54.298;10.172;2023-08-06T10:07:43;2.53;;;2.33;;
2462;SDS011;1243;54.298;10.172;2023-08-06T10:10:10;2.90;;;2.27;;
2462;SDS011;1243;54.298;10.172;2023-08-06T10:12:37;4.43;;;2.33;;
2462;SDS011;1243;54.298;10.172;2023-08-06T10:15:08;4.47;;;2.40;;
2462;SDS011;1243;54.298;10.172;2023-08-06T10:17:36;6.97;;;2.90;;
2462;SDS011;1243;54.298;10.172;2023-08-06T10:20:04;2.43;;;1.80;;
2462;SDS011;1243;54.298;10.172;2023-08-06T10:22:32;2.40;;;2.20;;
2462;SDS011;1243;54.298;10.172;2023-08-06T10:25:00;3.10;;;2.80;;
2462;SDS011;1243;54.298;10.172;2023-08-06T10:27:33;2.73;;;2.53;;
2462;SDS011;1243;54.298;10.172;2023-08-06T10:30:22;3.47;;;2.50;;
2462;SDS011;1243;54.298;10.172;2023-08-06T10:35:31;2.57;;;2.33;;
2462;SDS011;1243;54.298;10.172;2023-08-06T10:38:13;2.40;;;2.20;;
2462;SDS011;1243;54.298;10.172;2023-08-06T10:40:41;2.50;;;2.30;;
2462;SDS011;1243;54.298;10.172;2023-08-06T10:43:41;3.20;;;2.47;;
2462;SDS011;1243;54.298;10.172;2023-08-06T10:46:11;4.13;;;2.90;;
2462;SDS011;1243;54.298;10.172;2023-08-06T10:48:47;2.63;;;2.27;;
2462;SDS011;1243;54.298;10.172;2023-08-06T10:51:13;4.43;;;2.40;;
2462;SDS011;1243;54.298;10.172;2023-08-06T10:53:43;2.70;;;2.30;;
2462;SDS011;1243;54.298;10.172;2023-08-06T10:56:16;4.77;;;3.10;;
2462;SDS011;1243;54.298;10.172;2023-08-06T10:58:50;2.80;;;2.60;;
2462;SDS011;1243;54.298;10.172;2023-08-06T11:01:17;2.77;;;2.37;;
2462;SDS011;1243;54.298;10.172;2023-08-06T11:03:44;2.87;;;2.67;;
2462;SDS011;1243;54.298;10.172;2023-08-06T11:06:16;3.73;;;2.27;;
2462;SDS011;1243;54.298;10.172;2023-08-06T11:08:47;2.53;;;2.07;;
2462;SDS011;1243;54.298;10.172;2023-08-06T11:11:17;2.60;;;2.30;;
2462;SDS011;1243;54.298;10.172;2023-08-06T11:13:43;2.50;;;2.30;;
2462;SDS011;1243;54.298;10.172;2023-08-06T11:16:11;4.03;;;2.53;;
2462;SDS011;1243;54.298;10.172;2023-08-06T11:18:42;4.93;;;1.73;;
2462;SDS011;1243;54.298;10.172;2023-08-06T11:21:08;2.40;;;2.20;;
2462;SDS011;1243;54.298;10.172;2023-08-06T11:23:34;5.63;;;1.80;;
2462;SDS011;1243;54.298;10.172;2023-08-06T11:26:01;3.00;;;2.17;;
2462;SDS011;1243;54.298;10.172;2023-08-06T11:28:27;2.63;;;1.93;;
2462;SDS011;1243;54.298;10.172;2023-08-06T11:30:53;2.37;;;2.00;;
2462;SDS011;1243;54.298;10.172;2023-08-06T11:33:23;3.80;;;2.33;;
2462;SDS011;1243;54.298;10.172;2023-08-06T11:35:53;2.70;;;2.50;;
2462;SDS011;1243;54.298;10.172;2023-08-06T11:38:21;2.90;;;2.70;;
2462;SDS011;1243;54.298;10.172;2023-08-06T11:40:50;3.50;;;1.87;;
2462;SDS011;1243;54.298;10.172;2023-08-06T11:43:17;2.90;;;2.20;;
2462;SDS011;1243;54.298;10.172;2023-08-06T11:45:50;5.00;;;2.23;;
2462;SDS011;1243;54.298;10.172;2023-08-06T11:48:17;2.33;;;2.13;;
2462;SDS011;1243;54.298;10.172;2023-08-06T11:50:43;3.20;;;2.10;;
2462;SDS011;1243;54.298;10.172;2023-08-06T11:53:11;2.00;;;1.80;;
2462;SDS011;1243;54.298;10.172;2023-08-06T11:55:39;2.70;;;2.17;;
2462;SDS011;1243;54.298;10.172;2023-08-06T11:58:05;2.27;;;2.10;;
2462;SDS011;1243;54.298;10.172;2023-08-06T12:00:31;2.67;;;2.30;;
2462;SDS011;1243;54.298;10.172;2023-08-06T12:02:56;6.07;;;3.00;;
2462;SDS011;1243;54.298;10.172;2023-08-06T12:05:23;2.00;;;1.90;;
2462;SDS011;1243;54.298;10.172;2023-08-06T12:07:55;3.57;;;2.43;;
2462;SDS011;1243;54.298;10.172;2023-08-06T12:10:24;5.10;;;2.47;;
2462;SDS011;1243;54.298;10.172;2023-08-06T12:12:50;2.50;;;2.30;;
2462;SDS011;1243;54.298;10.172;2023-08-06T12:15:16;2.40;;;2.20;;
2462;SDS011;1243;54.298;10.172;2023-08-06T12:17:42;3.13;;;2.27;;
2462;SDS011;1243;54.298;10.172;2023-08-06T12:20:09;4.03;;;2.17;;
2462;SDS011;1243;54.298;10.172;2023-08-06T12:22:35;3.30;;;1.97;;
2462;SDS011;1243;54.298;10.172;2023-08-06T12:25:03;2.10;;;1.90;;
2462;SDS011;1243;54.298;10.172;2023-08-06T12:27:33;2.00;;;1.77;;
2462;SDS011;1243;54.298;10.172;2023-08-06T12:30:02;2.10;;;1.90;;
2462;SDS011;1243;54.298;10.172;2023-08-06T12:32:29;4.23;;;2.67;;
2462;SDS011;1243;54.298;10.172;2023-08-06T12:34:55;8.13;;;1.90;;
2462;SDS011;1243;54.298;10.172;2023-08-06T12:37:21;2.70;;;2.40;;
2462;SDS011;1243;54.298;10.172;2023-08-06T12:39:46;3.30;;;2.90;;
2462;SDS011;1243;54.298;10.172;2023-08-06T12:42:12;3.23;;;1.90;;
2462;SDS011;1243;54.298;10.172;2023-08-06T12:44:38;4.70;;;2.20;;
2462;SDS011;1243;54.298;10.172;2023-08-06T12:47:04;2.77;;;2.10;;
2462;SDS011;1243;54.298;10.172;2023-08-06T12:49:29;2.60;;;2.20;;
2462;SDS011;1243;54.298;10.172;2023-08-06T12:51:56;3.53;;;2.40;;
2462;SDS011;1243;54.298;10.172;2023-08-06T12:54:24;6.20;;;2.30;;
2462;SDS011;1243;54.298;10.172;2023-08-06T12:56:50;3.80;;;2.20;;
2462;SDS011;1243;54.298;10.172;2023-08-06T12:59:17;4.33;;;1.90;;
2462;SDS011;1243;54.298;10.172;2023-08-06T13:01:43;2.83;;;2.07;;
2462;SDS011;1243;54.298;10.172;2023-08-06T13:04:10;5.57;;;2.33;;
2462;SDS011;1243;54.298;10.172;2023-08-06T13:06:36;8.60;;;2.20;;
2462;SDS011;1243;54.298;10.172;2023-08-06T13:09:05;4.90;;;2.30;;
2462;SDS011;1243;54.298;10.172;2023-08-06T13:11:33;5.23;;;2.27;;
2462;SDS011;1243;54.298;10.172;2023-08-06T13:14:06;3.33;;;2.37;;
2462;SDS011;1243;54.298;10.172;2023-08-06T13:16:37;2.73;;;2.53;;
2462;SDS011;1243;54.298;10.172;2023-08-06T13:19:04;5.73;;;2.57;;
2462;SDS011;1243;54.298;10.172;2023-08-06T13:24:16;4.03;;;2.77;;
2462;SDS011;1243;54.298;10.172;2023-08-06T13:26:42;2.10;;;2.00;;
2462;SDS011;1243;54.298;10.172;2023-08-06T13:29:07;1.90;;;1.80;;
2462;SDS011;1243;54.298;10.172;2023-08-06T13:31:33;2.10;;;1.90;;
2462;SDS011;1243;54.298;10.172;2023-08-06T13:33:59;2.80;;;2.20;;
2462;SDS011;1243;54.298;10.172;2023-08-06T13:36:28;2.60;;;2.03;;
2462;SDS011;1243;54.298;10.172;2023-08-06T13:38:54;2.50;;;2.30;;
2462;SDS011;1243;54.298;10.172;2023-08-06T13:41:20;2.53;;;2.30;;
2462;SDS011;1243;54.298;10.172;2023-08-06T13:43:46;9.93;;;2.50;;
2462;SDS011;1243;54.298;10.172;2023-08-06T13:46:12;6.30;;;2.40;;
2462;SDS011;1243;54.298;10.172;2023-08-06T13:48:47;2.83;;;2.50;;
2462;SDS011;1243;54.298;10.172;2023-08-06T13:51:17;2.73;;;2.10;;
2462;SDS011;1243;54.298;10.172;2023-08-06T13:53:43;2.77;;;2.57;;
2462;SDS011;1243;54.298;10.172;2023-08-06T13:56:09;4.50;;;2.40;;
2462;SDS011;1243;54.298;10.172;2023-08-06T13:58:36;4.77;;;2.87;;
2462;SDS011;1243;54.298;10.172;2023-08-06T14:01:02;3.40;;;2.40;;
2462;SDS011;1243;54.298;10.172;2023-08-06T14:03:28;2.50;;;2.30;;
2462;SDS011;1243;54.298;10.172;2023-08-06T14:05:53;6.33;;;2.60;;
2462;SDS011;1243;54.298;10.172;2023-08-06T14:08:25;2.83;;;1.97;;
2462;SDS011;1243;54.298;10.172;2023-08-06T14:10:51;4.93;;;2.33;;
2462;SDS011;1243;54.298;10.172;2023-08-06T14:13:17;3.40;;;2.37;;
2462;SDS011;1243;54.298;10.172;2023-08-06T14:15:43;4.83;;;2.70;;
2462;SDS011;1243;54.298;10.172;2023-08-06T14:18:12;4.20;;;2.50;;
2462;SDS011;1243;54.298;10.172;2023-08-06T14:20:39;2.87;;;2.67;;
2462;SDS011;1243;54.298;10.172;2023-08-06T14:23:05;3.60;;;2.20;;
2462;SDS011;1243;54.298;10.172;2023-08-06T14:25:31;2.60;;;2.40;;
2462;SDS011;1243;54.298;10.172;2023-08-06T14:27:57;2.33;;;2.13;;
2462;SDS011;1243;54.298;10.172;2023-08-06T14:30:22;2.20;;;1.77;;
2462;SDS011;1243;54.298;10.172;2023-08-06T14:32:48;2.80;;;2.00;;
2462;SDS011;1243;54.298;10.172;2023-08-06T14:35:14;2.23;;;2.03;;
2462;SDS011;1243;54.298;10.172;2023-08-06T14:37:39;4.73;;;1.83;;
2462;SDS011;1243;54.298;10.172;2023-08-06T14:40:06;4.53;;;2.50;;
2462;SDS011;1243;54.298;10.172;2023-08-06T14:42:33;3.80;;;2.73;;
2462;SDS011;1243;54.298;10.172;2023-08-06T14:44:58;5.00;;;2.30;;
2462;SDS011;1243;54.298;10.172;2023-08-06T14:47:24;4.17;;;1.87;;
2462;SDS011;1243;54.298;10.172;2023-08-06T14:49:50;2.50;;;2.30;;
2462;SDS011;1243;54.298;10.172;2023-08-06T14:52:16;3.50;;;2.60;;
2462;SDS011;1243;54.298;10.172;2023-08-06T14:54:42;3.90;;;2.23;;
2462;SDS011;1243;54.298;10.172;2023-08-06T14:57:09;3.13;;;2.93;;
2462;SDS011;1243;54.298;10.172;2023-08-06T14:59:35;2.73;;;2.50;;
2462;SDS011;1243;54.298;10.172;2023-08-06T15:02:01;3.20;;;2.47;;
2462;SDS011;1243;54.298;10.172;2023-08-06T15:04:26;2.27;;;2.07;;
2462;SDS011;1243;54.298;10.172;2023-08-06T15:06:52;3.70;;;2.17;;
2462;SDS011;1243;54.298;10.172;2023-08-06T15:09:19;2.53;;;1.87;;